Reinbeck, IA

7:05 AM CDT on May 24, 2017 (GMT -0500)
Scout Creek | | Change Station

Elev 951 ft 42.34 °N, 92.55 °W | Updated 35 seconds ago

Overcast
Overcast
51.4 °F
Feels Like 51.4 °F
N
0.0
Wind Variable Wind from NNE

Today
High -- | Low -- °F
--% Chance of Precip.
Yesterday
High -- | Low -- °F
Precip. -- in
Pressure 29.67 in
Visibility 10.0 miles
Clouds Mostly Cloudy 800 ft
Overcast 1300 ft
Dew Point 51 °F
Humidity 98%
Rainfall 0.00 in
Snow Depth Not available.
5:40 AM 8:34 PM
Waning Crescent, 3% visible
METAR KALO 241154Z 01009KT 10SM BKN008 OVC013 11/09 A2967 RMK AO2 SLP047 60002 70014 T01060094 10111 20106 54000
Pressure 29.67 in
Visibility 10.0 miles
Clouds Mostly Cloudy 800 ft
Overcast 1300 ft
Dew Point 51 °F
Humidity 98%
Rainfall 0.00 in
Snow Depth Not available.
5:40 AM 8:34 PM
Waning Crescent, 3% visible
METAR KALO 241154Z 01009KT 10SM BKN008 OVC013 11/09 A2967 RMK AO2 SLP047 60002 70014 T01060094 10111 20106 54000

Get Severe Weather Alerts

Thanks for signing up!

Be on the lookout for a verification email in your inbox.

You'll start receiving the daily forecast at 6 AM.

×

10-Day Weather Forecast

Almanac

Astronomy

May. 24, 2017 Rise Set
Actual Time
Civil Twilight
Nautical Twilight
Astronomical Twilight
Moon
Length of Visible Light
Length of Day
Tomorrow will be .
, % of the Moon is Illuminated

Today's Extremes

State Highs State Lows

Community

WunderPhotos

Category 6

Welcome to Category 6. This is the collective home for Weather Underground's featured writeups by Dr. Jeff Masters (right), Bob Henson (left), Chris Burt, and other regular contributors.

Nearby

Air Quality

  Air Quality AQ Index Pollutant
Not available.

Snow Depth

Station Depth Elevation

Earthquake Activity

City Distance Mag. Time & Date
Minimum magnitude displayed is 2.5.

Coastal Water Temperatures

Place Temperature

Stations

Nearby Weather Stations

Station Location Temp. Windchill Dew Point Humidity Wind Precip. Elev Updated Type
                   

Watches & Warnings

There are currently no watches in effect.